sensor_id;sensor_type;location;lat;lon;timestamp;temperature;humidity
52941;DHT22;62001;53.366;6.636;2023-04-29T00:01:55;8.50;99.90
52941;DHT22;62001;53.366;6.636;2023-04-29T00:04:24;8.50;99.90
52941;DHT22;62001;53.366;6.636;2023-04-29T00:06:50;8.50;99.90
52941;DHT22;62001;53.366;6.636;2023-04-29T00:09:16;8.50;99.90
52941;DHT22;62001;53.366;6.636;2023-04-29T00:11:42;8.50;99.90
52941;DHT22;62001;53.366;6.636;2023-04-29T00:14:08;8.50;99.90
52941;DHT22;62001;53.366;6.636;2023-04-29T00:16:34;8.50;99.90
52941;DHT22;62001;53.366;6.636;2023-04-29T00:19:00;8.50;99.90
52941;DHT22;62001;53.366;6.636;2023-04-29T00:21:26;8.40;99.90
52941;DHT22;62001;53.366;6.636;2023-04-29T00:23:53;8.40;99.90
52941;DHT22;62001;53.366;6.636;2023-04-29T00:26:18;8.40;99.90
52941;DHT22;62001;53.366;6.636;2023-04-29T00:28:44;8.30;99.90
52941;DHT22;62001;53.366;6.636;2023-04-29T00:31:10;8.20;99.90
52941;DHT22;62001;53.366;6.636;2023-04-29T00:33:36;8.20;99.90
52941;DHT22;62001;53.366;6.636;2023-04-29T00:36:02;8.20;99.90
52941;DHT22;62001;53.366;6.636;2023-04-29T00:38:28;8.20;99.90
52941;DHT22;62001;53.366;6.636;2023-04-29T00:40:54;8.20;99.90
52941;DHT22;62001;53.366;6.636;2023-04-29T00:43:21;8.20;99.90
52941;DHT22;62001;53.366;6.636;2023-04-29T00:45:47;8.30;99.90
52941;DHT22;62001;53.366;6.636;2023-04-29T00:48:13;8.30;99.90
52941;DHT22;62001;53.366;6.636;2023-04-29T00:50:40;8.30;99.90
52941;DHT22;62001;53.366;6.636;2023-04-29T00:53:07;8.30;99.90
52941;DHT22;62001;53.366;6.636;2023-04-29T00:55:34;8.30;99.90
52941;DHT22;62001;53.366;6.636;2023-04-29T00:58:01;8.40;99.90
52941;DHT22;62001;53.366;6.636;2023-04-29T01:00:29;8.30;99.90
52941;DHT22;62001;53.366;6.636;2023-04-29T01:02:56;8.40;99.90
52941;DHT22;62001;53.366;6.636;2023-04-29T01:05:23;8.30;99.90
52941;DHT22;62001;53.366;6.636;2023-04-29T01:10:54;8.20;99.90
52941;DHT22;62001;53.366;6.636;2023-04-29T01:16:03;8.10;99.90
52941;DHT22;62001;53.366;6.636;2023-04-29T01:18:36;8.20;99.90
52941;DHT22;62001;53.366;6.636;2023-04-29T01:21:04;8.20;99.90
52941;DHT22;62001;53.366;6.636;2023-04-29T01:23:29;8.10;99.90
52941;DHT22;62001;53.366;6.636;2023-04-29T01:25:56;8.10;99.90
52941;DHT22;62001;53.366;6.636;2023-04-29T01:31:48;7.90;99.90
52941;DHT22;62001;53.366;6.636;2023-04-29T01:40:29;7.60;99.90
52941;DHT22;62001;53.366;6.636;2023-04-29T01:45:12;7.50;99.90
52941;DHT22;62001;53.366;6.636;2023-04-29T01:47:40;7.50;99.90
52941;DHT22;62001;53.366;6.636;2023-04-29T01:50:06;7.60;99.90
52941;DHT22;62001;53.366;6.636;2023-04-29T01:52:32;7.60;99.90
52941;DHT22;62001;53.366;6.636;2023-04-29T01:54:58;7.70;99.90
52941;DHT22;62001;53.366;6.636;2023-04-29T01:57:24;7.80;99.90
52941;DHT22;62001;53.366;6.636;2023-04-29T01:59:50;7.80;99.90
52941;DHT22;62001;53.366;6.636;2023-04-29T02:02:15;7.90;99.90
52941;DHT22;62001;53.366;6.636;2023-04-29T02:04:45;7.90;99.90
52941;DHT22;62001;53.366;6.636;2023-04-29T02:07:11;8.00;99.90
52941;DHT22;62001;53.366;6.636;2023-04-29T02:09:37;8.00;99.90
52941;DHT22;62001;53.366;6.636;2023-04-29T02:12:03;8.10;99.90
52941;DHT22;62001;53.366;6.636;2023-04-29T02:14:29;8.10;99.90
52941;DHT22;62001;53.366;6.636;2023-04-29T02:16:56;8.10;99.90
52941;DHT22;62001;53.366;6.636;2023-04-29T02:19:21;8.10;99.90
52941;DHT22;62001;53.366;6.636;2023-04-29T02:21:47;8.10;99.90
52941;DHT22;62001;53.366;6.636;2023-04-29T02:24:13;8.10;99.90
52941;DHT22;62001;53.366;6.636;2023-04-29T02:26:39;8.00;99.90
52941;DHT22;62001;53.366;6.636;2023-04-29T02:29:05;8.00;99.90
52941;DHT22;62001;53.366;6.636;2023-04-29T02:31:31;7.90;99.90
52941;DHT22;62001;53.366;6.636;2023-04-29T02:33:57;7.90;99.90
52941;DHT22;62001;53.366;6.636;2023-04-29T02:36:22;7.80;99.90
52941;DHT22;62001;53.366;6.636;2023-04-29T02:38:49;7.90;99.90
52941;DHT22;62001;53.366;6.636;2023-04-29T02:41:16;7.80;99.90
52941;DHT22;62001;53.366;6.636;2023-04-29T02:43:42;7.90;99.90
52941;DHT22;62001;53.366;6.636;2023-04-29T02:46:09;7.90;99.90
52941;DHT22;62001;53.366;6.636;2023-04-29T02:48:35;7.90;99.90
52941;DHT22;62001;53.366;6.636;2023-04-29T02:51:01;8.00;99.90
52941;DHT22;62001;53.366;6.636;2023-04-29T02:53:27;8.10;99.90
52941;DHT22;62001;53.366;6.636;2023-04-29T02:55:52;8.10;99.90
52941;DHT22;62001;53.366;6.636;2023-04-29T02:58:18;8.20;99.90
52941;DHT22;62001;53.366;6.636;2023-04-29T03:00:45;8.20;99.90
52941;DHT22;62001;53.366;6.636;2023-04-29T03:03:10;8.30;99.90
52941;DHT22;62001;53.366;6.636;2023-04-29T03:05:36;8.20;99.90
52941;DHT22;62001;53.366;6.636;2023-04-29T03:08:02;8.30;99.90
52941;DHT22;62001;53.366;6.636;2023-04-29T03:10:29;8.30;99.90
52941;DHT22;62001;53.366;6.636;2023-04-29T03:12:55;8.30;99.90
52941;DHT22;62001;53.366;6.636;2023-04-29T03:15:21;8.30;99.90
52941;DHT22;62001;53.366;6.636;2023-04-29T03:17:47;8.30;99.90
52941;DHT22;62001;53.366;6.636;2023-04-29T03:20:13;8.30;99.90
52941;DHT22;62001;53.366;6.636;2023-04-29T03:22:39;8.30;99.90
52941;DHT22;62001;53.366;6.636;2023-04-29T03:25:05;8.30;99.90
52941;DHT22;62001;53.366;6.636;2023-04-29T03:27:31;8.30;99.90
52941;DHT22;62001;53.366;6.636;2023-04-29T03:29:57;8.30;99.90
52941;DHT22;62001;53.366;6.636;2023-04-29T03:32:23;8.30;99.90
52941;DHT22;62001;53.366;6.636;2023-04-29T03:34:49;8.30;99.90
52941;DHT22;62001;53.366;6.636;2023-04-29T03:37:15;8.30;99.90
52941;DHT22;62001;53.366;6.636;2023-04-29T03:39:41;8.30;99.90
52941;DHT22;62001;53.366;6.636;2023-04-29T03:42:07;8.30;99.90
52941;DHT22;62001;53.366;6.636;2023-04-29T03:44:33;8.30;99.90
52941;DHT22;62001;53.366;6.636;2023-04-29T03:46:59;8.30;99.90
52941;DHT22;62001;53.366;6.636;2023-04-29T03:49:25;8.30;99.90
52941;DHT22;62001;53.366;6.636;2023-04-29T03:51:50;8.20;99.90
52941;DHT22;62001;53.366;6.636;2023-04-29T03:54:17;8.30;99.90
52941;DHT22;62001;53.366;6.636;2023-04-29T03:56:43;8.20;99.90
52941;DHT22;62001;53.366;6.636;2023-04-29T03:59:08;8.30;99.90
52941;DHT22;62001;53.366;6.636;2023-04-29T04:01:34;8.30;99.90
52941;DHT22;62001;53.366;6.636;2023-04-29T04:04:01;8.30;99.90
52941;DHT22;62001;53.366;6.636;2023-04-29T04:06:26;8.30;99.90
52941;DHT22;62001;53.366;6.636;2023-04-29T04:08:52;8.20;99.90
52941;DHT22;62001;53.366;6.636;2023-04-29T04:11:18;8.20;99.90
52941;DHT22;62001;53.366;6.636;2023-04-29T04:13:44;8.20;99.90
52941;DHT22;62001;53.366;6.636;2023-04-29T04:16:10;8.30;99.90
52941;DHT22;62001;53.366;6.636;2023-04-29T04:18:36;8.30;99.90
52941;DHT22;62001;53.366;6.636;2023-04-29T04:21:10;8.30;99.90
52941;DHT22;62001;53.366;6.636;2023-04-29T04:23:36;8.30;99.90
52941;DHT22;62001;53.366;6.636;2023-04-29T04:26:05;8.30;99.90
52941;DHT22;62001;53.366;6.636;2023-04-29T04:28:31;8.30;99.90
52941;DHT22;62001;53.366;6.636;2023-04-29T04:30:57;8.30;99.90
52941;DHT22;62001;53.366;6.636;2023-04-29T04:33:24;8.30;99.90
52941;DHT22;62001;53.366;6.636;2023-04-29T04:35:49;8.30;99.90
52941;DHT22;62001;53.366;6.636;2023-04-29T04:38:15;8.40;99.90
52941;DHT22;62001;53.366;6.636;2023-04-29T04:40:42;8.30;99.90
52941;DHT22;62001;53.366;6.636;2023-04-29T04:43:08;8.30;99.90
52941;DHT22;62001;53.366;6.636;2023-04-29T04:45:34;8.40;99.90
52941;DHT22;62001;53.366;6.636;2023-04-29T04:48:01;8.40;99.90
52941;DHT22;62001;53.366;6.636;2023-04-29T04:50:28;8.40;99.90
52941;DHT22;62001;53.366;6.636;2023-04-29T04:52:55;8.40;99.90
52941;DHT22;62001;53.366;6.636;2023-04-29T04:55:21;8.40;99.90
52941;DHT22;62001;53.366;6.636;2023-04-29T04:57:47;8.40;99.90
52941;DHT22;62001;53.366;6.636;2023-04-29T05:00:13;8.40;99.90
52941;DHT22;62001;53.366;6.636;2023-04-29T05:02:39;8.40;99.90
52941;DHT22;62001;53.366;6.636;2023-04-29T05:05:05;8.40;99.90
52941;DHT22;62001;53.366;6.636;2023-04-29T05:07:31;8.40;99.90
52941;DHT22;62001;53.366;6.636;2023-04-29T05:09:57;8.40;99.90
52941;DHT22;62001;53.366;6.636;2023-04-29T05:12:23;8.40;99.90
52941;DHT22;62001;53.366;6.636;2023-04-29T05:14:58;8.50;99.90
52941;DHT22;62001;53.366;6.636;2023-04-29T05:17:23;8.50;99.90
52941;DHT22;62001;53.366;6.636;2023-04-29T05:19:49;8.50;99.90
52941;DHT22;62001;53.366;6.636;2023-04-29T05:22:15;8.60;99.90
52941;DHT22;62001;53.366;6.636;2023-04-29T05:24:41;8.60;99.90
52941;DHT22;62001;53.366;6.636;2023-04-29T05:27:07;8.60;99.90
52941;DHT22;62001;53.366;6.636;2023-04-29T05:29:33;8.80;99.90
52941;DHT22;62001;53.366;6.636;2023-04-29T05:31:59;9.10;99.90
52941;DHT22;62001;53.366;6.636;2023-04-29T05:34:25;9.40;99.90
52941;DHT22;62001;53.366;6.636;2023-04-29T05:36:51;9.90;99.90
52941;DHT22;62001;53.366;6.636;2023-04-29T05:39:16;10.20;99.90
52941;DHT22;62001;53.366;6.636;2023-04-29T05:41:43;10.30;99.90
52941;DHT22;62001;53.366;6.636;2023-04-29T05:44:09;10.30;99.90
52941;DHT22;62001;53.366;6.636;2023-04-29T05:46:35;10.20;99.90
52941;DHT22;62001;53.366;6.636;2023-04-29T05:49:01;10.10;99.90
52941;DHT22;62001;53.366;6.636;2023-04-29T05:51:26;10.50;99.90
52941;DHT22;62001;53.366;6.636;2023-04-29T05:53:53;10.90;99.90
52941;DHT22;62001;53.366;6.636;2023-04-29T05:56:19;11.10;99.90
52941;DHT22;62001;53.366;6.636;2023-04-29T05:58:45;11.40;99.90
52941;DHT22;62001;53.366;6.636;2023-04-29T06:01:11;11.90;99.90
52941;DHT22;62001;53.366;6.636;2023-04-29T06:03:37;12.50;99.90
52941;DHT22;62001;53.366;6.636;2023-04-29T06:06:03;12.70;99.90
52941;DHT22;62001;53.366;6.636;2023-04-29T06:08:29;12.80;99.90
52941;DHT22;62001;53.366;6.636;2023-04-29T06:10:55;13.00;99.90
52941;DHT22;62001;53.366;6.636;2023-04-29T06:13:21;13.10;99.90
52941;DHT22;62001;53.366;6.636;2023-04-29T06:15:47;13.50;99.90
52941;DHT22;62001;53.366;6.636;2023-04-29T06:18:12;14.00;99.90
52941;DHT22;62001;53.366;6.636;2023-04-29T06:20:38;14.40;99.90
52941;DHT22;62001;53.366;6.636;2023-04-29T06:23:04;14.60;99.90
52941;DHT22;62001;53.366;6.636;2023-04-29T06:25:30;14.60;99.90
52941;DHT22;62001;53.366;6.636;2023-04-29T06:27:56;14.60;99.90
52941;DHT22;62001;53.366;6.636;2023-04-29T06:30:22;14.70;99.90
52941;DHT22;62001;53.366;6.636;2023-04-29T06:32:48;14.90;99.90
52941;DHT22;62001;53.366;6.636;2023-04-29T06:35:14;15.30;99.90
52941;DHT22;62001;53.366;6.636;2023-04-29T06:37:40;15.80;99.90
52941;DHT22;62001;53.366;6.636;2023-04-29T06:40:06;16.20;99.90
52941;DHT22;62001;53.366;6.636;2023-04-29T06:42:32;16.30;99.90
52941;DHT22;62001;53.366;6.636;2023-04-29T06:44:58;16.50;99.90
52941;DHT22;62001;53.366;6.636;2023-04-29T06:47:24;16.80;99.90
52941;DHT22;62001;53.366;6.636;2023-04-29T06:49:50;16.90;99.90
52941;DHT22;62001;53.366;6.636;2023-04-29T06:52:17;17.20;99.90
52941;DHT22;62001;53.366;6.636;2023-04-29T06:54:43;17.00;99.90
52941;DHT22;62001;53.366;6.636;2023-04-29T06:57:09;17.00;99.90
52941;DHT22;62001;53.366;6.636;2023-04-29T06:59:35;17.30;99.90
52941;DHT22;62001;53.366;6.636;2023-04-29T07:02:00;17.40;99.90
52941;DHT22;62001;53.366;6.636;2023-04-29T07:04:26;17.50;99.90
52941;DHT22;62001;53.366;6.636;2023-04-29T07:06:52;17.40;99.90
52941;DHT22;62001;53.366;6.636;2023-04-29T07:09:18;17.00;99.90
52941;DHT22;62001;53.366;6.636;2023-04-29T07:11:44;16.70;99.90
52941;DHT22;62001;53.366;6.636;2023-04-29T07:14:10;16.30;99.90
52941;DHT22;62001;53.366;6.636;2023-04-29T07:16:36;16.20;99.90
52941;DHT22;62001;53.366;6.636;2023-04-29T07:19:02;16.30;99.90
52941;DHT22;62001;53.366;6.636;2023-04-29T07:21:27;16.70;99.90
52941;DHT22;62001;53.366;6.636;2023-04-29T07:23:55;16.80;99.90
52941;DHT22;62001;53.366;6.636;2023-04-29T07:26:21;16.80;99.90
52941;DHT22;62001;53.366;6.636;2023-04-29T07:28:47;16.70;99.90
52941;DHT22;62001;53.366;6.636;2023-04-29T07:31:13;16.70;99.90
52941;DHT22;62001;53.366;6.636;2023-04-29T07:33:39;17.20;99.90
52941;DHT22;62001;53.366;6.636;2023-04-29T07:36:05;17.80;99.90
52941;DHT22;62001;53.366;6.636;2023-04-29T07:38:32;18.40;99.90
52941;DHT22;62001;53.366;6.636;2023-04-29T07:40:58;18.90;99.90
52941;DHT22;62001;53.366;6.636;2023-04-29T07:43:24;19.10;99.90
52941;DHT22;62001;53.366;6.636;2023-04-29T07:45:51;19.10;99.90
52941;DHT22;62001;53.366;6.636;2023-04-29T07:48:18;18.90;99.90
52941;DHT22;62001;53.366;6.636;2023-04-29T07:50:45;19.00;99.90
52941;DHT22;62001;53.366;6.636;2023-04-29T07:53:11;19.30;99.90
52941;DHT22;62001;53.366;6.636;2023-04-29T07:55:37;19.30;99.90
52941;DHT22;62001;53.366;6.636;2023-04-29T07:58:03;19.20;99.90
52941;DHT22;62001;53.366;6.636;2023-04-29T08:00:29;19.30;99.90
52941;DHT22;62001;53.366;6.636;2023-04-29T08:02:56;18.90;99.90
52941;DHT22;62001;53.366;6.636;2023-04-29T08:05:22;19.10;99.90
52941;DHT22;62001;53.366;6.636;2023-04-29T08:07:49;19.30;99.90
52941;DHT22;62001;53.366;6.636;2023-04-29T08:10:16;19.50;99.90
52941;DHT22;62001;53.366;6.636;2023-04-29T08:12:45;19.70;99.90
52941;DHT22;62001;53.366;6.636;2023-04-29T08:15:11;19.60;99.90
52941;DHT22;62001;53.366;6.636;2023-04-29T08:17:37;19.70;99.90
52941;DHT22;62001;53.366;6.636;2023-04-29T08:20:03;19.60;99.90
52941;DHT22;62001;53.366;6.636;2023-04-29T08:22:29;19.40;99.10
52941;DHT22;62001;53.366;6.636;2023-04-29T08:24:55;19.00;98.70
52941;DHT22;62001;53.366;6.636;2023-04-29T08:27:22;18.30;99.90
52941;DHT22;62001;53.366;6.636;2023-04-29T08:29:48;17.90;99.90
52941;DHT22;62001;53.366;6.636;2023-04-29T08:32:14;17.50;99.90
52941;DHT22;62001;53.366;6.636;2023-04-29T08:34:40;17.20;99.90
52941;DHT22;62001;53.366;6.636;2023-04-29T08:37:06;16.80;99.90
52941;DHT22;62001;53.366;6.636;2023-04-29T08:39:32;16.20;99.90
52941;DHT22;62001;53.366;6.636;2023-04-29T08:41:58;15.90;99.90
52941;DHT22;62001;53.366;6.636;2023-04-29T08:44:25;15.90;99.90
52941;DHT22;62001;53.366;6.636;2023-04-29T08:46:52;16.50;99.90
52941;DHT22;62001;53.366;6.636;2023-04-29T08:49:18;17.10;99.90
52941;DHT22;62001;53.366;6.636;2023-04-29T08:51:46;17.60;99.90
52941;DHT22;62001;53.366;6.636;2023-04-29T08:54:12;17.60;99.90
52941;DHT22;62001;53.366;6.636;2023-04-29T08:56:38;17.50;99.90
52941;DHT22;62001;53.366;6.636;2023-04-29T08:59:05;17.40;99.90
52941;DHT22;62001;53.366;6.636;2023-04-29T09:01:35;16.70;99.90
52941;DHT22;62001;53.366;6.636;2023-04-29T09:06:54;15.60;99.90
52941;DHT22;62001;53.366;6.636;2023-04-29T09:09:20;15.10;99.90
52941;DHT22;62001;53.366;6.636;2023-04-29T09:11:47;14.90;99.90
52941;DHT22;62001;53.366;6.636;2023-04-29T09:14:13;14.80;99.90
52941;DHT22;62001;53.366;6.636;2023-04-29T09:16:39;14.70;99.90
52941;DHT22;62001;53.366;6.636;2023-04-29T09:19:05;15.40;99.90
52941;DHT22;62001;53.366;6.636;2023-04-29T09:21:31;15.90;99.90
52941;DHT22;62001;53.366;6.636;2023-04-29T09:24:01;15.80;99.90
52941;DHT22;62001;53.366;6.636;2023-04-29T09:26:41;15.50;99.90
52941;DHT22;62001;53.366;6.636;2023-04-29T09:31:35;14.80;99.90
52941;DHT22;62001;53.366;6.636;2023-04-29T09:34:02;14.60;99.90
52941;DHT22;62001;53.366;6.636;2023-04-29T09:36:48;14.50;99.90
52941;DHT22;62001;53.366;6.636;2023-04-29T09:39:20;14.40;99.90
52941;DHT22;62001;53.366;6.636;2023-04-29T09:44:29;15.50;99.90
52941;DHT22;62001;53.366;6.636;2023-04-29T09:47:03;16.10;99.90
52941;DHT22;62001;53.366;6.636;2023-04-29T09:49:31;16.30;99.90
52941;DHT22;62001;53.366;6.636;2023-04-29T09:52:00;16.20;99.90
52941;DHT22;62001;53.366;6.636;2023-04-29T09:54:28;16.10;99.90
52941;DHT22;62001;53.366;6.636;2023-04-29T09:56:55;16.30;99.90
52941;DHT22;62001;53.366;6.636;2023-04-29T09:59:22;16.30;99.90
52941;DHT22;62001;53.366;6.636;2023-04-29T10:01:55;16.20;99.90
52941;DHT22;62001;53.366;6.636;2023-04-29T10:04:26;16.00;99.90
52941;DHT22;62001;53.366;6.636;2023-04-29T10:06:53;15.60;99.90
52941;DHT22;62001;53.366;6.636;2023-04-29T10:09:21;15.70;99.90
52941;DHT22;62001;53.366;6.636;2023-04-29T10:11:50;15.90;99.90
52941;DHT22;62001;53.366;6.636;2023-04-29T10:14:21;16.10;99.90
52941;DHT22;62001;53.366;6.636;2023-04-29T10:17:10;16.10;99.90
52941;DHT22;62001;53.366;6.636;2023-04-29T10:19:52;15.80;99.90
52941;DHT22;62001;53.366;6.636;2023-04-29T10:22:31;15.40;99.90
52941;DHT22;62001;53.366;6.636;2023-04-29T10:25:00;15.40;99.90
52941;DHT22;62001;53.366;6.636;2023-04-29T10:27:26;15.50;99.90
52941;DHT22;62001;53.366;6.636;2023-04-29T10:29:55;15.40;99.90
52941;DHT22;62001;53.366;6.636;2023-04-29T10:32:24;15.30;99.40
52941;DHT22;62001;53.366;6.636;2023-04-29T10:34:52;15.10;99.10
52941;DHT22;62001;53.366;6.636;2023-04-29T10:37:20;14.70;99.90
52941;DHT22;62001;53.366;6.636;2023-04-29T10:40:00;14.60;98.50
52941;DHT22;62001;53.366;6.636;2023-04-29T10:42:42;14.50;99.90
52941;DHT22;62001;53.366;6.636;2023-04-29T10:53:14;14.30;99.90
52941;DHT22;62001;53.366;6.636;2023-04-29T10:55:41;14.20;99.90
52941;DHT22;62001;53.366;6.636;2023-04-29T10:58:34;14.10;99.90
52941;DHT22;62001;53.366;6.636;2023-04-29T11:01:00;14.00;99.90
52941;DHT22;62001;53.366;6.636;2023-04-29T11:03:45;14.00;99.90
52941;DHT22;62001;53.366;6.636;2023-04-29T11:06:13;14.00;99.90
52941;DHT22;62001;53.366;6.636;2023-04-29T11:08:39;13.90;99.90
52941;DHT22;62001;53.366;6.636;2023-04-29T11:11:06;13.80;99.90
52941;DHT22;62001;53.366;6.636;2023-04-29T11:13:39;13.80;99.90
52941;DHT22;62001;53.366;6.636;2023-04-29T11:16:06;13.80;99.90
52941;DHT22;62001;53.366;6.636;2023-04-29T11:18:34;13.90;99.90
52941;DHT22;62001;53.366;6.636;2023-04-29T11:23:35;13.80;99.90
52941;DHT22;62001;53.366;6.636;2023-04-29T11:26:01;13.60;99.90
52941;DHT22;62001;53.366;6.636;2023-04-29T11:28:29;13.50;99.90
52941;DHT22;62001;53.366;6.636;2023-04-29T11:30:59;13.50;99.90
52941;DHT22;62001;53.366;6.636;2023-04-29T11:33:26;13.50;99.90
52941;DHT22;62001;53.366;6.636;2023-04-29T11:35:55;13.40;99.90
52941;DHT22;62001;53.366;6.636;2023-04-29T11:38:25;13.40;99.90
52941;DHT22;62001;53.366;6.636;2023-04-29T11:40:51;13.40;99.90
52941;DHT22;62001;53.366;6.636;2023-04-29T11:43:19;13.40;99.90
52941;DHT22;62001;53.366;6.636;2023-04-29T11:45:46;13.40;99.90
52941;DHT22;62001;53.366;6.636;2023-04-29T11:48:24;13.30;99.90
52941;DHT22;62001;53.366;6.636;2023-04-29T11:51:00;13.30;99.90
52941;DHT22;62001;53.366;6.636;2023-04-29T11:53:26;13.20;99.90
52941;DHT22;62001;53.366;6.636;2023-04-29T11:55:55;13.10;99.90
52941;DHT22;62001;53.366;6.636;2023-04-29T11:58:23;13.20;99.90
52941;DHT22;62001;53.366;6.636;2023-04-29T12:00:49;13.30;99.90
52941;DHT22;62001;53.366;6.636;2023-04-29T12:03:20;13.30;99.90
52941;DHT22;62001;53.366;6.636;2023-04-29T12:05:47;13.40;99.90
52941;DHT22;62001;53.366;6.636;2023-04-29T12:08:13;13.50;99.90
52941;DHT22;62001;53.366;6.636;2023-04-29T12:10:40;13.60;99.90
52941;DHT22;62001;53.366;6.636;2023-04-29T12:13:06;13.70;99.90
52941;DHT22;62001;53.366;6.636;2023-04-29T12:15:32;13.70;99.90
52941;DHT22;62001;53.366;6.636;2023-04-29T12:17:59;13.80;99.90
52941;DHT22;62001;53.366;6.636;2023-04-29T12:20:26;13.80;99.90
52941;DHT22;62001;53.366;6.636;2023-04-29T12:22:53;13.90;99.90
52941;DHT22;62001;53.366;6.636;2023-04-29T12:25:24;14.10;99.90
52941;DHT22;62001;53.366;6.636;2023-04-29T12:27:51;14.10;99.90
52941;DHT22;62001;53.366;6.636;2023-04-29T12:30:24;14.10;99.90
52941;DHT22;62001;53.366;6.636;2023-04-29T12:32:51;14.10;99.90
52941;DHT22;62001;53.366;6.636;2023-04-29T12:35:17;14.20;99.90
52941;DHT22;62001;53.366;6.636;2023-04-29T12:37:46;14.20;99.90
52941;DHT22;62001;53.366;6.636;2023-04-29T12:40:15;14.10;99.90
52941;DHT22;62001;53.366;6.636;2023-04-29T12:42:42;14.10;99.90
52941;DHT22;62001;53.366;6.636;2023-04-29T12:45:31;14.10;99.90
52941;DHT22;62001;53.366;6.636;2023-04-29T12:47:58;14.00;99.90
52941;DHT22;62001;53.366;6.636;2023-04-29T12:50:31;13.70;99.90
52941;DHT22;62001;53.366;6.636;2023-04-29T12:52:57;13.30;99.90
52941;DHT22;62001;53.366;6.636;2023-04-29T12:55:23;12.90;99.90
52941;DHT22;62001;53.366;6.636;2023-04-29T12:57:50;12.80;99.90
52941;DHT22;62001;53.366;6.636;2023-04-29T13:00:16;12.80;99.90
52941;DHT22;62001;53.366;6.636;2023-04-29T13:02:43;12.90;99.90
52941;DHT22;62001;53.366;6.636;2023-04-29T13:05:08;13.10;99.90
52941;DHT22;62001;53.366;6.636;2023-04-29T13:07:34;13.20;99.90
52941;DHT22;62001;53.366;6.636;2023-04-29T13:10:00;13.20;99.90
52941;DHT22;62001;53.366;6.636;2023-04-29T13:12:26;13.20;99.90
52941;DHT22;62001;53.366;6.636;2023-04-29T13:14:52;12.90;99.90
52941;DHT22;62001;53.366;6.636;2023-04-29T13:17:18;12.80;99.90
52941;DHT22;62001;53.366;6.636;2023-04-29T13:19:45;12.80;99.90
52941;DHT22;62001;53.366;6.636;2023-04-29T13:22:12;12.70;99.90
52941;DHT22;62001;53.366;6.636;2023-04-29T13:24:37;12.60;99.90
52941;DHT22;62001;53.366;6.636;2023-04-29T13:27:03;12.70;99.90
52941;DHT22;62001;53.366;6.636;2023-04-29T13:29:30;12.90;99.90
52941;DHT22;62001;53.366;6.636;2023-04-29T13:31:56;12.90;99.90
52941;DHT22;62001;53.366;6.636;2023-04-29T13:34:21;13.00;99.90
52941;DHT22;62001;53.366;6.636;2023-04-29T13:36:47;13.00;99.90
52941;DHT22;62001;53.366;6.636;2023-04-29T13:39:13;13.00;99.90
52941;DHT22;62001;53.366;6.636;2023-04-29T13:41:39;12.80;99.90
52941;DHT22;62001;53.366;6.636;2023-04-29T13:44:05;12.50;99.90
52941;DHT22;62001;53.366;6.636;2023-04-29T13:46:31;12.30;99.90
52941;DHT22;62001;53.366;6.636;2023-04-29T13:48:57;12.20;99.90
52941;DHT22;62001;53.366;6.636;2023-04-29T13:51:23;12.20;99.90
52941;DHT22;62001;53.366;6.636;2023-04-29T13:53:49;12.20;99.90
52941;DHT22;62001;53.366;6.636;2023-04-29T13:56:15;12.20;99.90
52941;DHT22;62001;53.366;6.636;2023-04-29T13:58:41;12.20;99.90
52941;DHT22;62001;53.366;6.636;2023-04-29T14:01:07;12.20;99.90
52941;DHT22;62001;53.366;6.636;2023-04-29T14:03:33;12.20;99.90
52941;DHT22;62001;53.366;6.636;2023-04-29T14:05:58;12.20;99.90
52941;DHT22;62001;53.366;6.636;2023-04-29T14:08:25;12.20;99.90
52941;DHT22;62001;53.366;6.636;2023-04-29T14:10:51;12.20;99.90
52941;DHT22;62001;53.366;6.636;2023-04-29T14:13:16;12.30;99.90
52941;DHT22;62001;53.366;6.636;2023-04-29T14:15:42;12.30;99.90
52941;DHT22;62001;53.366;6.636;2023-04-29T14:18:08;12.30;99.90
52941;DHT22;62001;53.366;6.636;2023-04-29T14:20:36;12.40;99.90
52941;DHT22;62001;53.366;6.636;2023-04-29T14:23:02;12.40;99.90
52941;DHT22;62001;53.366;6.636;2023-04-29T14:25:27;12.40;99.90
52941;DHT22;62001;53.366;6.636;2023-04-29T14:27:53;12.40;99.90
52941;DHT22;62001;53.366;6.636;2023-04-29T14:30:19;12.30;99.90
52941;DHT22;62001;53.366;6.636;2023-04-29T14:32:46;12.20;99.90
52941;DHT22;62001;53.366;6.636;2023-04-29T14:35:11;12.20;99.90
52941;DHT22;62001;53.366;6.636;2023-04-29T14:37:37;12.00;99.90
52941;DHT22;62001;53.366;6.636;2023-04-29T14:40:04;11.90;99.90
52941;DHT22;62001;53.366;6.636;2023-04-29T14:42:30;11.80;99.90
52941;DHT22;62001;53.366;6.636;2023-04-29T14:44:56;11.80;99.90
52941;DHT22;62001;53.366;6.636;2023-04-29T14:47:22;11.80;99.90
52941;DHT22;62001;53.366;6.636;2023-04-29T14:49:48;11.80;99.90
52941;DHT22;62001;53.366;6.636;2023-04-29T14:52:13;11.90;99.90
52941;DHT22;62001;53.366;6.636;2023-04-29T14:54:39;11.80;99.90
52941;DHT22;62001;53.366;6.636;2023-04-29T14:57:05;11.80;99.90
52941;DHT22;62001;53.366;6.636;2023-04-29T14:59:31;11.80;99.90
52941;DHT22;62001;53.366;6.636;2023-04-29T15:01:58;11.80;99.90
52941;DHT22;62001;53.366;6.636;2023-04-29T15:04:23;11.80;99.90
52941;DHT22;62001;53.366;6.636;2023-04-29T15:06:50;12.00;99.90
52941;DHT22;62001;53.366;6.636;2023-04-29T15:09:16;12.00;99.90
52941;DHT22;62001;53.366;6.636;2023-04-29T15:11:42;11.90;99.90
52941;DHT22;62001;53.366;6.636;2023-04-29T15:14:08;11.90;99.90
52941;DHT22;62001;53.366;6.636;2023-04-29T15:16:33;11.90;99.90
52941;DHT22;62001;53.366;6.636;2023-04-29T15:18:59;11.80;99.90
52941;DHT22;62001;53.366;6.636;2023-04-29T15:21:26;11.80;99.90
52941;DHT22;62001;53.366;6.636;2023-04-29T15:23:52;11.70;99.90
52941;DHT22;62001;53.366;6.636;2023-04-29T15:26:18;11.70;99.90
52941;DHT22;62001;53.366;6.636;2023-04-29T15:28:44;11.60;99.90
52941;DHT22;62001;53.366;6.636;2023-04-29T15:31:11;11.60;99.90
52941;DHT22;62001;53.366;6.636;2023-04-29T15:33:37;11.60;99.90
52941;DHT22;62001;53.366;6.636;2023-04-29T15:36:03;11.60;99.90
52941;DHT22;62001;53.366;6.636;2023-04-29T15:38:29;11.50;99.90
52941;DHT22;62001;53.366;6.636;2023-04-29T15:40:56;11.50;99.90
52941;DHT22;62001;53.366;6.636;2023-04-29T15:43:26;11.40;99.90
52941;DHT22;62001;53.366;6.636;2023-04-29T15:45:52;11.30;99.90
52941;DHT22;62001;53.366;6.636;2023-04-29T15:48:18;11.30;99.90
52941;DHT22;62001;53.366;6.636;2023-04-29T15:50:44;11.20;99.90
52941;DHT22;62001;53.366;6.636;2023-04-29T15:53:10;11.10;99.90
52941;DHT22;62001;53.366;6.636;2023-04-29T15:55:36;11.10;99.90
52941;DHT22;62001;53.366;6.636;2023-04-29T15:58:02;11.00;99.90
52941;DHT22;62001;53.366;6.636;2023-04-29T16:00:28;11.00;99.90
52941;DHT22;62001;53.366;6.636;2023-04-29T16:02:54;10.90;99.90
52941;DHT22;62001;53.366;6.636;2023-04-29T16:05:20;10.90;99.90
52941;DHT22;62001;53.366;6.636;2023-04-29T16:07:46;10.90;99.90
52941;DHT22;62001;53.366;6.636;2023-04-29T16:10:11;10.90;99.90